createdAt,value
2022-10-22T00:02:16.284Z,10.81
2022-10-22T00:05:20.094Z,10.81
2022-10-22T00:08:23.135Z,10.84
2022-10-22T00:11:26.654Z,10.71
2022-10-22T00:14:29.627Z,10.78
2022-10-22T00:17:33.114Z,10.79
2022-10-22T00:20:36.088Z,10.77
2022-10-22T00:23:42.954Z,10.77
2022-10-22T00:26:46.197Z,10.68
2022-10-22T00:29:49.740Z,10.73
2022-10-22T00:32:52.646Z,10.74
2022-10-22T00:35:58.905Z,10.70
2022-10-22T00:39:01.962Z,10.70
2022-10-22T00:42:05.499Z,10.65
2022-10-22T00:45:11.750Z,10.63
2022-10-22T00:48:31.797Z,10.60
2022-10-22T00:51:36.219Z,10.56
2022-10-22T00:54:40.469Z,10.54
2022-10-22T00:57:43.972Z,10.51
2022-10-22T01:00:48.325Z,10.49
2022-10-22T01:03:52.282Z,10.46
2022-10-22T01:06:55.937Z,10.46
2022-10-22T01:10:11.260Z,10.48
2022-10-22T01:13:35.232Z,10.38
2022-10-22T01:17:01.000Z,10.36
2022-10-22T01:20:11.280Z,10.45
2022-10-22T01:23:46.952Z,10.37
2022-10-22T01:27:01.008Z,10.43
2022-10-22T01:30:08.516Z,10.45
2022-10-22T01:33:14.481Z,10.49
2022-10-22T01:36:18.506Z,10.53
2022-10-22T01:39:23.784Z,10.53
2022-10-22T01:42:28.335Z,10.38
2022-10-22T01:45:41.048Z,10.35
2022-10-22T01:49:27.095Z,10.46
2022-10-22T01:52:49.978Z,10.51
2022-10-22T01:56:16.579Z,10.54
2022-10-22T01:59:21.199Z,10.54
2022-10-22T02:02:49.608Z,10.57
2022-10-22T02:05:56.443Z,10.53
2022-10-22T02:09:00.968Z,10.47
2022-10-22T02:12:06.966Z,10.40
2022-10-22T02:15:11.250Z,10.35
2022-10-22T02:18:15.961Z,10.24
2022-10-22T02:21:19.122Z,10.18
2022-10-22T02:24:22.967Z,10.09
2022-10-22T02:27:27.105Z,10.04
2022-10-22T02:30:31.280Z,9.89
2022-10-22T02:33:37.325Z,9.77
2022-10-22T02:36:46.619Z,9.61
2022-10-22T02:39:53.356Z,9.52
2022-10-22T02:42:57.043Z,9.50
2022-10-22T02:46:00.049Z,9.46
2022-10-22T02:49:03.828Z,9.45
2022-10-22T02:52:06.986Z,9.43
2022-10-22T02:55:10.574Z,9.38
2022-10-22T02:58:14.210Z,9.25
2022-10-22T03:01:18.047Z,9.20
2022-10-22T03:04:21.191Z,9.06
2022-10-22T03:07:25.083Z,8.95
2022-10-22T03:10:28.171Z,8.88
2022-10-22T03:13:34.743Z,8.81
2022-10-22T03:16:37.903Z,8.79
2022-10-22T03:19:42.294Z,8.71
2022-10-22T03:22:45.744Z,8.73
2022-10-22T03:25:50.248Z,8.70
2022-10-22T03:28:54.112Z,8.62
2022-10-22T03:31:57.529Z,8.72
2022-10-22T03:38:03.966Z,8.62
2022-10-22T03:41:07.656Z,8.69
2022-10-22T03:44:11.122Z,8.74
2022-10-22T03:47:14.187Z,8.77
2022-10-22T03:50:17.769Z,8.77
2022-10-22T03:53:22.371Z,8.78
2022-10-22T03:56:25.914Z,8.84
2022-10-22T03:59:30.036Z,9.03
2022-10-22T04:02:34.919Z,9.07
2022-10-22T04:05:38.293Z,9.02
2022-10-22T04:08:42.638Z,9.01
2022-10-22T04:11:45.862Z,8.97
2022-10-22T04:14:49.258Z,9.04
2022-10-22T04:17:52.618Z,9.12
2022-10-22T04:20:55.578Z,9.16
2022-10-22T04:23:59.112Z,9.12
2022-10-22T04:27:02.198Z,9.12
2022-10-22T04:30:06.943Z,9.00
2022-10-22T04:33:10.550Z,8.92
2022-10-22T04:36:18.393Z,8.75
2022-10-22T04:39:24.932Z,8.78
2022-10-22T04:45:48.208Z,8.65
2022-10-22T04:48:52.788Z,8.59
2022-10-22T04:51:55.968Z,8.45
2022-10-22T04:54:59.385Z,8.38
2022-10-22T04:58:03.285Z,8.32
2022-10-22T05:01:16.391Z,8.19
2022-10-22T05:04:19.873Z,8.26
2022-10-22T05:07:24.032Z,8.17
2022-10-22T05:10:27.187Z,8.26
2022-10-22T05:13:30.453Z,8.26
2022-10-22T05:16:36.227Z,8.22
2022-10-22T05:19:46.807Z,8.22
2022-10-22T05:22:50.097Z,8.27
2022-10-22T05:25:53.335Z,8.36
2022-10-22T05:28:56.277Z,8.38
2022-10-22T05:31:59.549Z,8.27
2022-10-22T05:35:02.461Z,8.31
2022-10-22T05:38:06.741Z,8.35
2022-10-22T05:41:11.954Z,8.29
2022-10-22T05:44:15.191Z,8.26
2022-10-22T05:47:18.056Z,8.25
2022-10-22T05:50:21.615Z,8.44
2022-10-22T05:53:24.573Z,8.56
2022-10-22T05:56:29.355Z,8.69
2022-10-22T05:59:32.401Z,8.79
2022-10-22T06:02:35.741Z,8.53
2022-10-22T06:05:39.075Z,8.28
2022-10-22T06:08:42.517Z,8.48
2022-10-22T06:11:46.800Z,8.65
2022-10-22T06:14:49.811Z,8.55
2022-10-22T06:17:53.040Z,8.61
2022-10-22T06:21:04.917Z,8.93
2022-10-22T06:24:11.921Z,9.12
2022-10-22T06:30:48.804Z,9.58
2022-10-22T06:34:04.540Z,9.71
2022-10-22T06:37:11.571Z,9.93
2022-10-22T06:43:51.401Z,10.15
2022-10-22T06:47:38.594Z,10.17
2022-10-22T06:50:50.330Z,10.52
2022-10-22T06:53:55.314Z,10.57
2022-10-22T06:57:01.746Z,10.38
2022-10-22T07:00:23.136Z,10.33
2022-10-22T07:03:26.634Z,10.54
2022-10-22T07:06:30.541Z,10.53
2022-10-22T07:09:57.086Z,10.69
2022-10-22T07:13:17.746Z,10.65
2022-10-22T07:16:32.814Z,10.71
2022-10-22T07:19:37.478Z,10.79
2022-10-22T07:22:45.984Z,10.92
2022-10-22T07:25:59.421Z,11.01
2022-10-22T07:29:03.202Z,10.97
2022-10-22T07:32:07.142Z,10.86
2022-10-22T07:35:12.727Z,10.94
2022-10-22T07:38:19.528Z,10.79
2022-10-22T08:07:53.141Z,12.56
2022-10-22T08:11:16.819Z,12.21
2022-10-22T08:14:33.463Z,12.61
2022-10-22T08:17:39.520Z,12.74
2022-10-22T08:20:43.444Z,12.07
2022-10-22T08:23:46.893Z,12.28
2022-10-22T08:26:50.408Z,12.58
2022-10-22T08:29:55.282Z,12.33
2022-10-22T08:32:58.586Z,12.77
2022-10-22T08:36:15.004Z,12.83
2022-10-22T08:39:25.203Z,12.89
2022-10-22T08:43:06.496Z,12.93
2022-10-22T08:46:37.203Z,12.86
2022-10-22T08:49:57.294Z,12.98
2022-10-22T08:57:25.358Z,13.60
2022-10-22T09:00:35.977Z,13.74
2022-10-22T09:03:45.148Z,13.92
2022-10-22T09:06:57.994Z,13.88
2022-10-22T12:18:20.949Z,15.55
2022-10-22T12:21:35.980Z,15.19
2022-10-22T12:24:43.379Z,15.16
2022-10-22T12:28:06.786Z,15.01
2022-10-22T12:31:49.803Z,14.86
2022-10-22T12:34:57.407Z,14.65
2022-10-22T12:43:28.489Z,14.42
2022-10-22T12:46:57.067Z,14.25
2022-10-22T17:26:35.054Z,10.73
2022-10-22T17:29:38.860Z,10.79
2022-10-22T17:32:42.214Z,10.68
2022-10-22T17:35:50.141Z,10.76
2022-10-22T17:38:55.779Z,10.64
2022-10-22T17:42:03.431Z,10.75
2022-10-22T17:45:10.689Z,10.63
2022-10-22T17:48:14.684Z,10.54
2022-10-22T17:51:21.929Z,10.69
2022-10-22T17:54:31.254Z,10.77
2022-10-22T17:57:34.885Z,10.69
2022-10-22T18:00:38.679Z,10.57
2022-10-22T18:03:43.154Z,10.74
2022-10-22T18:06:48.184Z,10.72
2022-10-22T18:09:55.299Z,10.53
2022-10-22T18:12:59.274Z,10.58
2022-10-22T18:16:03.190Z,10.51
2022-10-22T18:19:14.580Z,10.65
2022-10-22T18:22:19.665Z,10.61
2022-10-22T18:25:26.852Z,10.48
2022-10-22T18:28:42.729Z,10.60
2022-10-22T18:31:51.135Z,10.44
2022-10-22T18:35:01.817Z,10.43
2022-10-22T18:38:05.488Z,10.44
2022-10-22T18:41:10.695Z,10.43
2022-10-22T18:44:16.268Z,10.35
2022-10-22T18:47:25.539Z,10.38
2022-10-22T18:50:30.033Z,10.31
2022-10-22T18:53:35.846Z,10.22
2022-10-22T18:56:40.974Z,10.16
2022-10-22T18:59:50.403Z,10.11
2022-10-22T19:02:55.505Z,10.11
2022-10-22T19:06:00.372Z,10.08
2022-10-22T19:09:04.647Z,10.04
2022-10-22T19:12:09.309Z,9.99
2022-10-22T19:15:13.066Z,10.09
2022-10-22T19:18:18.293Z,10.01
2022-10-22T19:21:23.382Z,10.13
2022-10-22T19:24:29.412Z,10.11
2022-10-22T19:27:33.478Z,10.12
2022-10-22T19:30:41.553Z,10.03
2022-10-22T19:33:48.169Z,10.13
2022-10-22T19:36:52.360Z,10.08
2022-10-22T19:39:59.253Z,10.09
2022-10-22T19:43:05.391Z,10.11
2022-10-22T19:46:10.867Z,10.07
2022-10-22T19:49:18.850Z,10.06
2022-10-22T19:52:25.321Z,10.02
2022-10-22T19:55:29.143Z,10.04
2022-10-22T19:58:38.205Z,10.02
2022-10-22T20:01:41.671Z,10.04
2022-10-22T20:04:50.752Z,10.11
2022-10-22T20:08:03.004Z,10.22
2022-10-22T20:11:17.215Z,10.23
2022-10-22T20:14:45.515Z,10.04
2022-10-22T20:17:52.606Z,10.17
2022-10-22T20:20:56.926Z,10.12
2022-10-22T20:24:03.832Z,9.98
2022-10-22T20:27:10.682Z,10.11
2022-10-22T20:33:22.207Z,10.05
2022-10-22T20:36:27.166Z,10.07
2022-10-22T20:39:30.774Z,10.03
2022-10-22T20:42:34.906Z,10.06
2022-10-22T20:45:38.122Z,10.12
2022-10-22T20:48:41.742Z,10.08
2022-10-22T20:51:45.293Z,10.00
2022-10-22T20:54:49.303Z,9.96
2022-10-22T20:57:52.609Z,9.92
2022-10-22T21:00:57.369Z,9.91
2022-10-22T21:04:01.499Z,9.90
2022-10-22T21:07:05.867Z,9.88
2022-10-22T21:10:09.260Z,9.81
2022-10-22T21:13:14.249Z,9.82
2022-10-22T21:16:19.893Z,9.87
2022-10-22T21:19:24.541Z,9.91
2022-10-22T21:22:27.915Z,9.92
2022-10-22T21:25:31.849Z,9.96
2022-10-22T21:28:37.051Z,9.99
2022-10-22T21:31:40.714Z,9.98
2022-10-22T21:34:43.884Z,10.02
2022-10-22T21:37:47.421Z,10.09
2022-10-22T21:40:51.021Z,10.09
2022-10-22T21:43:54.720Z,10.02
2022-10-22T21:46:57.756Z,10.09
2022-10-22T21:50:01.278Z,10.10
2022-10-22T21:53:04.145Z,10.10
2022-10-22T21:56:08.119Z,10.07
2022-10-22T21:59:11.035Z,10.11
2022-10-22T22:02:14.263Z,10.05
2022-10-22T22:05:17.936Z,10.03
2022-10-22T22:08:20.867Z,10.07
2022-10-22T22:11:27.900Z,9.96
2022-10-22T22:14:32.824Z,10.03
2022-10-22T22:17:36.166Z,10.02
2022-10-22T22:20:39.139Z,9.97
2022-10-22T22:23:44.307Z,10.02
2022-10-22T22:26:48.314Z,10.02
2022-10-22T22:29:51.739Z,10.12
2022-10-22T22:32:55.160Z,10.15
2022-10-22T22:35:59.877Z,10.10
2022-10-22T22:39:05.099Z,10.06
2022-10-22T22:42:08.696Z,10.14
2022-10-22T22:45:14.303Z,10.11
2022-10-22T22:48:17.828Z,10.10
2022-10-22T22:51:21.154Z,10.20
2022-10-22T22:54:24.514Z,10.13
2022-10-22T22:57:27.519Z,10.09
2022-10-22T23:00:32.300Z,10.15
2022-10-22T23:03:35.361Z,10.10
2022-10-22T23:06:40.384Z,10.15
2022-10-22T23:09:43.343Z,10.22
2022-10-22T23:12:47.064Z,10.20
2022-10-22T23:15:50.064Z,10.16
2022-10-22T23:18:54.774Z,10.26
2022-10-22T23:21:57.837Z,10.25
2022-10-22T23:25:01.155Z,10.27
2022-10-22T23:28:04.199Z,10.29
2022-10-22T23:31:07.969Z,10.26
2022-10-22T23:34:13.136Z,10.30
2022-10-22T23:37:16.481Z,10.32
2022-10-22T23:40:19.448Z,10.28
2022-10-22T23:43:24.662Z,10.31
2022-10-22T23:46:27.760Z,10.33
2022-10-22T23:49:31.980Z,10.20
2022-10-22T23:52:35.336Z,10.20
2022-10-22T23:55:40.168Z,10.21
2022-10-22T23:58:44.700Z,10.17
